アナディリ の空港の天気 - METARとTAF

アナディリ・ウゴルヌイ空港 ( UHMA / DYR ) - ロシア アナディリ
飛行場実況気象(Metar)
観測時間02/28 07:00 +11 (02/27 20:00 UTC)
風向・風速北西 7m/s
視程10km以上
天気現象低い地吹雪
なし
気温-22℃
湿度77%
気圧1023hPa
METARUHMA 272000Z 31007MPS 9999 DRSN NSC M22/M25 Q1023 NOSIG RMK QFE772/1029
過去の天気等 Google飛行場航空写真 Wunderground天気予報

過去48時間のMETAR

飛行場予報(TAF)
発表時間: 2/28 06:44 +11 (2/27 19:44 UTC)
予報対象時間: 28日8時 +11 ~ 1日8時 +11
風向・風速北北西 6m/s
視程10km以上
なし
28日8時 +11 ~ 28日14時 +11 に一時的に
風向・風速西北西 8m/s 瞬間風速 13m/s
天気現象低い地吹雪
28日19時 +11 ~ 28日21時 +11 に徐々に
風向・風速北 5m/s
28日21時 +11 ~ 28日24時 +11 に一時的に
風向・風速北北東 4m/s
1日0時 +11 ~ 1日2時 +11 に徐々に
風向・風速東南東 5m/s
1日0時 +11 ~ 1日8時 +11 に一時的に
風向・風速不定 1m/s
視程4,000m
天気現象もや
TAF UHMA 271944Z 2721/2821 33006MPS 9999 NSC
TEMPO 2721/2803 29008G13MPS DRSN
BECMG 2808/2810 36005MPS
TEMPO 2810/2813 03004MPS
BECMG 2813/2815 12005MPS
TEMPO 2813/2821 VRB01MPS 4000 BR